sensor_id;sensor_type;location;lat;lon;timestamp;temperature;humidity
35495;DHT22;21608;49.300;6.846;2022-10-16T00:02:22;20.90;55.10
35495;DHT22;21608;49.300;6.846;2022-10-16T00:05:24;20.90;55.00
35495;DHT22;21608;49.300;6.846;2022-10-16T00:08:26;20.90;55.60
35495;DHT22;21608;49.300;6.846;2022-10-16T00:11:33;20.90;55.00
35495;DHT22;21608;49.300;6.846;2022-10-16T00:14:35;20.90;55.00
35495;DHT22;21608;49.300;6.846;2022-10-16T00:17:37;20.90;55.00
35495;DHT22;21608;49.300;6.846;2022-10-16T00:20:39;20.90;54.90
35495;DHT22;21608;49.300;6.846;2022-10-16T00:23:41;20.90;55.00
35495;DHT22;21608;49.300;6.846;2022-10-16T00:26:43;20.90;54.90
35495;DHT22;21608;49.300;6.846;2022-10-16T00:29:48;20.90;54.90
35495;DHT22;21608;49.300;6.846;2022-10-16T00:32:50;20.90;54.90
35495;DHT22;21608;49.300;6.846;2022-10-16T00:35:52;20.90;54.90
35495;DHT22;21608;49.300;6.846;2022-10-16T00:38:55;20.90;55.00
35495;DHT22;21608;49.300;6.846;2022-10-16T00:41:59;20.90;55.00
35495;DHT22;21608;49.300;6.846;2022-10-16T00:45:00;20.90;54.90
35495;DHT22;21608;49.300;6.846;2022-10-16T00:48:02;20.90;54.90
35495;DHT22;21608;49.300;6.846;2022-10-16T00:51:06;20.90;54.90
35495;DHT22;21608;49.300;6.846;2022-10-16T00:54:12;20.90;55.50
35495;DHT22;21608;49.300;6.846;2022-10-16T00:57:15;20.90;54.90
35495;DHT22;21608;49.300;6.846;2022-10-16T01:00:21;20.90;54.90
35495;DHT22;21608;49.300;6.846;2022-10-16T01:03:31;20.90;54.90
35495;DHT22;21608;49.300;6.846;2022-10-16T01:06:46;20.90;54.80
35495;DHT22;21608;49.300;6.846;2022-10-16T01:10:07;20.80;54.80
35495;DHT22;21608;49.300;6.846;2022-10-16T01:13:24;20.90;54.80
35495;DHT22;21608;49.300;6.846;2022-10-16T01:16:34;20.90;54.80
35495;DHT22;21608;49.300;6.846;2022-10-16T01:20:01;20.80;54.80
35495;DHT22;21608;49.300;6.846;2022-10-16T01:23:14;20.80;55.30
35495;DHT22;21608;49.300;6.846;2022-10-16T01:29:42;20.80;54.80
35495;DHT22;21608;49.300;6.846;2022-10-16T01:32:57;20.80;54.70
35495;DHT22;21608;49.300;6.846;2022-10-16T01:36:09;20.80;54.70
35495;DHT22;21608;49.300;6.846;2022-10-16T01:39:12;20.80;54.70
35495;DHT22;21608;49.300;6.846;2022-10-16T01:42:29;20.80;54.70
35495;DHT22;21608;49.300;6.846;2022-10-16T01:45:32;20.80;54.80
35495;DHT22;21608;49.300;6.846;2022-10-16T01:48:35;20.80;54.80
35495;DHT22;21608;49.300;6.846;2022-10-16T01:51:37;20.80;54.70
35495;DHT22;21608;49.300;6.846;2022-10-16T01:54:41;20.80;54.70
35495;DHT22;21608;49.300;6.846;2022-10-16T01:57:47;20.80;54.60
35495;DHT22;21608;49.300;6.846;2022-10-16T02:00:50;20.80;54.60
35495;DHT22;21608;49.300;6.846;2022-10-16T02:03:54;20.80;54.70
35495;DHT22;21608;49.300;6.846;2022-10-16T02:06:58;20.80;54.70
35495;DHT22;21608;49.300;6.846;2022-10-16T02:10:00;20.80;54.60
35495;DHT22;21608;49.300;6.846;2022-10-16T02:13:21;20.80;54.60
35495;DHT22;21608;49.300;6.846;2022-10-16T02:16:37;20.80;54.70
35495;DHT22;21608;49.300;6.846;2022-10-16T02:19:39;20.80;54.70
35495;DHT22;21608;49.300;6.846;2022-10-16T02:22:45;20.80;54.70
35495;DHT22;21608;49.300;6.846;2022-10-16T02:25:50;20.80;54.60
35495;DHT22;21608;49.300;6.846;2022-10-16T02:29:00;20.80;54.60
35495;DHT22;21608;49.300;6.846;2022-10-16T02:32:04;20.80;54.60
35495;DHT22;21608;49.300;6.846;2022-10-16T02:35:08;20.80;54.60
35495;DHT22;21608;49.300;6.846;2022-10-16T02:38:11;20.80;54.70
35495;DHT22;21608;49.300;6.846;2022-10-16T02:41:14;20.80;54.60
35495;DHT22;21608;49.300;6.846;2022-10-16T02:44:16;20.80;54.60
35495;DHT22;21608;49.300;6.846;2022-10-16T02:47:18;20.80;54.60
35495;DHT22;21608;49.300;6.846;2022-10-16T02:50:20;20.80;54.60
35495;DHT22;21608;49.300;6.846;2022-10-16T02:53:21;20.80;54.60
35495;DHT22;21608;49.300;6.846;2022-10-16T02:56:23;20.80;54.60
35495;DHT22;21608;49.300;6.846;2022-10-16T02:59:25;20.80;54.60
35495;DHT22;21608;49.300;6.846;2022-10-16T03:02:27;20.80;54.60
35495;DHT22;21608;49.300;6.846;2022-10-16T03:05:28;20.80;54.50
35495;DHT22;21608;49.300;6.846;2022-10-16T03:08:30;20.80;54.60
35495;DHT22;21608;49.300;6.846;2022-10-16T03:11:32;20.80;54.60
35495;DHT22;21608;49.300;6.846;2022-10-16T03:14:34;20.80;54.50
35495;DHT22;21608;49.300;6.846;2022-10-16T03:17:36;20.80;54.50
35495;DHT22;21608;49.300;6.846;2022-10-16T03:20:38;20.80;54.50
35495;DHT22;21608;49.300;6.846;2022-10-16T03:23:39;20.80;54.60
35495;DHT22;21608;49.300;6.846;2022-10-16T03:26:41;20.80;54.50
35495;DHT22;21608;49.300;6.846;2022-10-16T03:29:43;20.80;54.60
35495;DHT22;21608;49.300;6.846;2022-10-16T03:32:45;20.80;54.50
35495;DHT22;21608;49.300;6.846;2022-10-16T03:35:51;20.80;54.50
35495;DHT22;21608;49.300;6.846;2022-10-16T03:38:54;20.80;54.60
35495;DHT22;21608;49.300;6.846;2022-10-16T03:41:56;20.70;54.60
35495;DHT22;21608;49.300;6.846;2022-10-16T03:44:58;20.80;54.60
35495;DHT22;21608;49.300;6.846;2022-10-16T03:47:59;20.70;54.60
35495;DHT22;21608;49.300;6.846;2022-10-16T03:51:01;20.70;54.60
35495;DHT22;21608;49.300;6.846;2022-10-16T03:54:03;20.70;54.50
35495;DHT22;21608;49.300;6.846;2022-10-16T03:57:05;20.70;54.50
35495;DHT22;21608;49.300;6.846;2022-10-16T04:00:07;20.70;54.50
35495;DHT22;21608;49.300;6.846;2022-10-16T04:03:17;20.80;54.50
35495;DHT22;21608;49.300;6.846;2022-10-16T04:06:20;20.80;54.50
35495;DHT22;21608;49.300;6.846;2022-10-16T04:09:22;20.80;54.50
35495;DHT22;21608;49.300;6.846;2022-10-16T04:12:24;20.70;54.50
35495;DHT22;21608;49.300;6.846;2022-10-16T04:15:26;20.70;54.70
35495;DHT22;21608;49.300;6.846;2022-10-16T04:18:28;20.80;54.50
35495;DHT22;21608;49.300;6.846;2022-10-16T04:21:30;20.70;54.50
35495;DHT22;21608;49.300;6.846;2022-10-16T04:24:32;20.70;54.50
35495;DHT22;21608;49.300;6.846;2022-10-16T04:27:34;20.70;54.50
35495;DHT22;21608;49.300;6.846;2022-10-16T04:30:38;20.70;54.50
35495;DHT22;21608;49.300;6.846;2022-10-16T04:33:42;20.70;54.50
35495;DHT22;21608;49.300;6.846;2022-10-16T04:36:47;20.70;54.50
35495;DHT22;21608;49.300;6.846;2022-10-16T04:39:49;20.70;54.50
35495;DHT22;21608;49.300;6.846;2022-10-16T04:42:51;20.70;54.50
35495;DHT22;21608;49.300;6.846;2022-10-16T04:45:53;20.70;54.40
35495;DHT22;21608;49.300;6.846;2022-10-16T04:48:56;20.70;54.40
35495;DHT22;21608;49.300;6.846;2022-10-16T04:51:58;20.70;54.50
35495;DHT22;21608;49.300;6.846;2022-10-16T04:54:59;20.70;54.50
35495;DHT22;21608;49.300;6.846;2022-10-16T04:58:04;20.70;54.40
35495;DHT22;21608;49.300;6.846;2022-10-16T05:01:05;20.70;54.50
35495;DHT22;21608;49.300;6.846;2022-10-16T05:04:07;20.70;54.50
35495;DHT22;21608;49.300;6.846;2022-10-16T05:07:09;20.70;54.40
35495;DHT22;21608;49.300;6.846;2022-10-16T05:10:11;20.70;54.50
35495;DHT22;21608;49.300;6.846;2022-10-16T05:13:13;20.70;54.50
35495;DHT22;21608;49.300;6.846;2022-10-16T05:16:15;20.70;54.40
35495;DHT22;21608;49.300;6.846;2022-10-16T05:19:17;20.70;54.50
35495;DHT22;21608;49.300;6.846;2022-10-16T05:22:34;20.70;54.40
35495;DHT22;21608;49.300;6.846;2022-10-16T05:25:36;20.70;54.50
35495;DHT22;21608;49.300;6.846;2022-10-16T05:28:38;20.70;54.40
35495;DHT22;21608;49.300;6.846;2022-10-16T05:31:39;20.70;54.40
35495;DHT22;21608;49.300;6.846;2022-10-16T05:34:41;20.70;54.40
35495;DHT22;21608;49.300;6.846;2022-10-16T05:37:43;20.70;54.40
35495;DHT22;21608;49.300;6.846;2022-10-16T05:40:51;20.70;54.50
35495;DHT22;21608;49.300;6.846;2022-10-16T05:43:54;20.70;54.50
35495;DHT22;21608;49.300;6.846;2022-10-16T05:46:56;20.70;54.40
35495;DHT22;21608;49.300;6.846;2022-10-16T05:49:57;20.70;54.40
35495;DHT22;21608;49.300;6.846;2022-10-16T05:52:59;20.70;54.40
35495;DHT22;21608;49.300;6.846;2022-10-16T05:56:01;20.70;54.40
35495;DHT22;21608;49.300;6.846;2022-10-16T05:59:04;20.70;54.40
35495;DHT22;21608;49.300;6.846;2022-10-16T06:02:07;20.70;54.40
35495;DHT22;21608;49.300;6.846;2022-10-16T06:05:10;20.70;54.50
35495;DHT22;21608;49.300;6.846;2022-10-16T06:08:11;20.70;54.40
35495;DHT22;21608;49.300;6.846;2022-10-16T06:11:16;20.70;54.40
35495;DHT22;21608;49.300;6.846;2022-10-16T06:14:18;20.60;54.40
35495;DHT22;21608;49.300;6.846;2022-10-16T06:17:20;20.70;54.40
35495;DHT22;21608;49.300;6.846;2022-10-16T06:20:21;20.70;54.40
35495;DHT22;21608;49.300;6.846;2022-10-16T06:23:24;20.70;54.40
35495;DHT22;21608;49.300;6.846;2022-10-16T06:26:28;20.70;54.40
35495;DHT22;21608;49.300;6.846;2022-10-16T06:29:30;20.70;54.40
35495;DHT22;21608;49.300;6.846;2022-10-16T06:32:32;20.60;54.40
35495;DHT22;21608;49.300;6.846;2022-10-16T06:35:33;20.70;54.40
35495;DHT22;21608;49.300;6.846;2022-10-16T06:38:35;20.60;54.40
35495;DHT22;21608;49.300;6.846;2022-10-16T06:41:37;20.60;54.30
35495;DHT22;21608;49.300;6.846;2022-10-16T06:44:49;20.70;54.30
35495;DHT22;21608;49.300;6.846;2022-10-16T06:47:51;20.70;54.40
35495;DHT22;21608;49.300;6.846;2022-10-16T06:51:07;20.70;54.30
35495;DHT22;21608;49.300;6.846;2022-10-16T06:54:10;20.70;54.30
35495;DHT22;21608;49.300;6.846;2022-10-16T06:57:11;20.70;54.30
35495;DHT22;21608;49.300;6.846;2022-10-16T07:00:13;20.70;54.30
35495;DHT22;21608;49.300;6.846;2022-10-16T07:03:15;20.80;54.20
35495;DHT22;21608;49.300;6.846;2022-10-16T07:06:19;20.80;54.10
35495;DHT22;21608;49.300;6.846;2022-10-16T07:09:21;20.80;54.10
35495;DHT22;21608;49.300;6.846;2022-10-16T07:12:23;20.90;54.20
35495;DHT22;21608;49.300;6.846;2022-10-16T07:15:26;20.90;54.20
35495;DHT22;21608;49.300;6.846;2022-10-16T07:18:28;20.90;54.20
35495;DHT22;21608;49.300;6.846;2022-10-16T07:21:33;21.00;54.40
35495;DHT22;21608;49.300;6.846;2022-10-16T07:24:38;21.00;54.50
35495;DHT22;21608;49.300;6.846;2022-10-16T07:27:40;21.00;54.40
35495;DHT22;21608;49.300;6.846;2022-10-16T07:30:41;21.00;54.50
35495;DHT22;21608;49.300;6.846;2022-10-16T07:33:45;21.10;54.60
35495;DHT22;21608;49.300;6.846;2022-10-16T07:36:49;21.10;54.60
35495;DHT22;21608;49.300;6.846;2022-10-16T07:39:51;21.10;54.60
35495;DHT22;21608;49.300;6.846;2022-10-16T07:42:53;21.10;54.70
35495;DHT22;21608;49.300;6.846;2022-10-16T07:45:55;21.10;54.60
35495;DHT22;21608;49.300;6.846;2022-10-16T07:49:00;21.20;54.80
35495;DHT22;21608;49.300;6.846;2022-10-16T07:52:02;21.20;54.90
35495;DHT22;21608;49.300;6.846;2022-10-16T07:55:04;21.20;54.80
35495;DHT22;21608;49.300;6.846;2022-10-16T07:58:06;21.30;54.80
35495;DHT22;21608;49.300;6.846;2022-10-16T08:01:11;21.30;54.90
35495;DHT22;21608;49.300;6.846;2022-10-16T08:04:13;21.40;54.90
35495;DHT22;21608;49.300;6.846;2022-10-16T08:07:15;21.40;54.80
35495;DHT22;21608;49.300;6.846;2022-10-16T08:10:18;21.40;54.80
35495;DHT22;21608;49.300;6.846;2022-10-16T08:13:20;21.40;54.80
35495;DHT22;21608;49.300;6.846;2022-10-16T08:16:22;21.50;54.70
35495;DHT22;21608;49.300;6.846;2022-10-16T08:19:24;21.40;54.70
35495;DHT22;21608;49.300;6.846;2022-10-16T08:22:25;21.40;54.70
35495;DHT22;21608;49.300;6.846;2022-10-16T08:25:27;21.40;54.60
35495;DHT22;21608;49.300;6.846;2022-10-16T08:28:29;21.50;54.60
35495;DHT22;21608;49.300;6.846;2022-10-16T08:31:31;21.50;54.70
35495;DHT22;21608;49.300;6.846;2022-10-16T08:34:33;21.60;54.70
35495;DHT22;21608;49.300;6.846;2022-10-16T08:37:34;21.60;54.60
35495;DHT22;21608;49.300;6.846;2022-10-16T08:40:37;21.60;54.60
35495;DHT22;21608;49.300;6.846;2022-10-16T08:44:04;21.70;54.60
35495;DHT22;21608;49.300;6.846;2022-10-16T08:50:25;21.70;55.10
35495;DHT22;21608;49.300;6.846;2022-10-16T08:53:44;21.70;54.50
35495;DHT22;21608;49.300;6.846;2022-10-16T08:56:49;21.80;54.60
35495;DHT22;21608;49.300;6.846;2022-10-16T08:59:52;21.90;54.50
35495;DHT22;21608;49.300;6.846;2022-10-16T09:03:21;21.90;54.40
35495;DHT22;21608;49.300;6.846;2022-10-16T09:06:34;22.00;54.40
35495;DHT22;21608;49.300;6.846;2022-10-16T09:16:20;22.10;54.30
35495;DHT22;21608;49.300;6.846;2022-10-16T09:22:35;22.20;54.10
35495;DHT22;21608;49.300;6.846;2022-10-16T09:25:39;22.20;54.20
35495;DHT22;21608;49.300;6.846;2022-10-16T09:28:42;22.30;54.30
35495;DHT22;21608;49.300;6.846;2022-10-16T09:31:44;22.30;54.20
35495;DHT22;21608;49.300;6.846;2022-10-16T09:34:55;22.30;54.20
35495;DHT22;21608;49.300;6.846;2022-10-16T09:37:58;22.30;54.20
35495;DHT22;21608;49.300;6.846;2022-10-16T09:44:31;22.40;54.10
35495;DHT22;21608;49.300;6.846;2022-10-16T09:47:43;22.40;54.10
35495;DHT22;21608;49.300;6.846;2022-10-16T09:50:58;22.40;54.10
35495;DHT22;21608;49.300;6.846;2022-10-16T09:54:01;22.40;54.20
35495;DHT22;21608;49.300;6.846;2022-10-16T09:57:05;22.40;54.10
35495;DHT22;21608;49.300;6.846;2022-10-16T10:00:09;22.40;54.10
35495;DHT22;21608;49.300;6.846;2022-10-16T10:03:11;22.40;54.10
35495;DHT22;21608;49.300;6.846;2022-10-16T10:06:21;22.40;54.10
35495;DHT22;21608;49.300;6.846;2022-10-16T10:09:32;22.40;54.10
35495;DHT22;21608;49.300;6.846;2022-10-16T10:12:36;22.30;54.10
35495;DHT22;21608;49.300;6.846;2022-10-16T10:15:41;22.40;54.10
35495;DHT22;21608;49.300;6.846;2022-10-16T10:18:43;22.30;54.00
35495;DHT22;21608;49.300;6.846;2022-10-16T10:21:46;22.40;54.00
35495;DHT22;21608;49.300;6.846;2022-10-16T10:31:44;22.40;54.00
35495;DHT22;21608;49.300;6.846;2022-10-16T10:35:11;22.30;53.90
35495;DHT22;21608;49.300;6.846;2022-10-16T10:47:59;22.30;54.00
35495;DHT22;21608;49.300;6.846;2022-10-16T10:51:08;22.30;54.00
35495;DHT22;21608;49.300;6.846;2022-10-16T10:54:29;22.30;54.10
35495;DHT22;21608;49.300;6.846;2022-10-16T10:58:00;22.30;54.00
35495;DHT22;21608;49.300;6.846;2022-10-16T11:07:45;22.20;53.90
35495;DHT22;21608;49.300;6.846;2022-10-16T11:10:57;22.20;54.00
35495;DHT22;21608;49.300;6.846;2022-10-16T11:14:02;22.20;54.00
35495;DHT22;21608;49.300;6.846;2022-10-16T11:17:16;22.20;54.00
35495;DHT22;21608;49.300;6.846;2022-10-16T11:20:30;22.20;54.00
35495;DHT22;21608;49.300;6.846;2022-10-16T11:26:54;22.20;54.00
35495;DHT22;21608;49.300;6.846;2022-10-16T11:30:01;22.20;53.90
35495;DHT22;21608;49.300;6.846;2022-10-16T11:39:27;22.20;54.00
35495;DHT22;21608;49.300;6.846;2022-10-16T11:42:34;22.20;54.00
35495;DHT22;21608;49.300;6.846;2022-10-16T11:46:15;22.20;54.10
35495;DHT22;21608;49.300;6.846;2022-10-16T11:49:21;22.20;54.30
35495;DHT22;21608;49.300;6.846;2022-10-16T11:52:40;22.20;54.20
35495;DHT22;21608;49.300;6.846;2022-10-16T11:55:45;22.20;54.20
35495;DHT22;21608;49.300;6.846;2022-10-16T11:59:00;22.20;54.20
35495;DHT22;21608;49.300;6.846;2022-10-16T12:05:35;22.20;54.20
35495;DHT22;21608;49.300;6.846;2022-10-16T12:08:43;22.20;54.30
35495;DHT22;21608;49.300;6.846;2022-10-16T12:11:45;22.20;54.50
35495;DHT22;21608;49.300;6.846;2022-10-16T12:14:47;22.20;54.30
35495;DHT22;21608;49.300;6.846;2022-10-16T12:18:21;22.20;54.40
35495;DHT22;21608;49.300;6.846;2022-10-16T12:21:30;22.10;54.40
35495;DHT22;21608;49.300;6.846;2022-10-16T12:24:37;22.20;54.60
35495;DHT22;21608;49.300;6.846;2022-10-16T12:27:39;22.10;54.60
35495;DHT22;21608;49.300;6.846;2022-10-16T12:30:43;22.20;54.50
35495;DHT22;21608;49.300;6.846;2022-10-16T12:34:01;22.20;54.50
35495;DHT22;21608;49.300;6.846;2022-10-16T12:37:18;22.20;54.60
35495;DHT22;21608;49.300;6.846;2022-10-16T12:40:31;22.10;54.70
35495;DHT22;21608;49.300;6.846;2022-10-16T12:43:41;22.10;54.60
35495;DHT22;21608;49.300;6.846;2022-10-16T12:46:44;22.10;54.70
35495;DHT22;21608;49.300;6.846;2022-10-16T12:49:53;22.20;54.80
35495;DHT22;21608;49.300;6.846;2022-10-16T12:52:55;22.10;54.80
35495;DHT22;21608;49.300;6.846;2022-10-16T12:56:18;22.10;54.80
35495;DHT22;21608;49.300;6.846;2022-10-16T12:59:41;22.10;54.90
35495;DHT22;21608;49.300;6.846;2022-10-16T13:19:23;22.10;54.70
35495;DHT22;21608;49.300;6.846;2022-10-16T13:23:09;22.10;54.80
35495;DHT22;21608;49.300;6.846;2022-10-16T13:29:16;22.10;54.80
35495;DHT22;21608;49.300;6.846;2022-10-16T13:32:19;22.10;54.80
35495;DHT22;21608;49.300;6.846;2022-10-16T13:35:27;22.10;54.70
35495;DHT22;21608;49.300;6.846;2022-10-16T13:38:32;22.10;54.80
35495;DHT22;21608;49.300;6.846;2022-10-16T13:41:34;22.10;54.80
35495;DHT22;21608;49.300;6.846;2022-10-16T13:44:56;22.00;54.60
35495;DHT22;21608;49.300;6.846;2022-10-16T13:48:03;22.10;54.70
35495;DHT22;21608;49.300;6.846;2022-10-16T13:51:15;22.10;54.70
35495;DHT22;21608;49.300;6.846;2022-10-16T13:54:17;22.10;54.80
35495;DHT22;21608;49.300;6.846;2022-10-16T13:57:22;22.10;54.70
35495;DHT22;21608;49.300;6.846;2022-10-16T14:00:28;22.10;54.80
35495;DHT22;21608;49.300;6.846;2022-10-16T14:03:33;22.00;54.70
35495;DHT22;21608;49.300;6.846;2022-10-16T14:06:41;22.00;54.70
35495;DHT22;21608;49.300;6.846;2022-10-16T14:09:48;22.00;54.80
35495;DHT22;21608;49.300;6.846;2022-10-16T14:16:02;22.00;54.80
35495;DHT22;21608;49.300;6.846;2022-10-16T14:19:16;22.00;54.80
35495;DHT22;21608;49.300;6.846;2022-10-16T14:22:39;22.00;54.90
35495;DHT22;21608;49.300;6.846;2022-10-16T14:25:42;22.00;54.90
35495;DHT22;21608;49.300;6.846;2022-10-16T14:28:44;22.00;54.90
35495;DHT22;21608;49.300;6.846;2022-10-16T14:32:04;22.00;54.90
35495;DHT22;21608;49.300;6.846;2022-10-16T14:35:43;22.00;54.90
35495;DHT22;21608;49.300;6.846;2022-10-16T14:38:57;22.00;54.90
35495;DHT22;21608;49.300;6.846;2022-10-16T14:42:00;22.00;55.00
35495;DHT22;21608;49.300;6.846;2022-10-16T14:45:09;22.00;55.10
35495;DHT22;21608;49.300;6.846;2022-10-16T14:48:17;22.00;55.10
35495;DHT22;21608;49.300;6.846;2022-10-16T14:51:20;22.10;55.00
35495;DHT22;21608;49.300;6.846;2022-10-16T14:54:23;22.00;55.00
35495;DHT22;21608;49.300;6.846;2022-10-16T14:57:27;22.00;55.10
35495;DHT22;21608;49.300;6.846;2022-10-16T15:00:31;22.00;55.30
35495;DHT22;21608;49.300;6.846;2022-10-16T15:03:33;22.10;55.30
35495;DHT22;21608;49.300;6.846;2022-10-16T15:06:34;22.00;55.10
35495;DHT22;21608;49.300;6.846;2022-10-16T15:09:36;22.00;55.30
35495;DHT22;21608;49.300;6.846;2022-10-16T15:12:38;22.00;55.40
35495;DHT22;21608;49.300;6.846;2022-10-16T15:15:43;22.00;55.40
35495;DHT22;21608;49.300;6.846;2022-10-16T15:18:45;22.00;55.80
35495;DHT22;21608;49.300;6.846;2022-10-16T15:21:47;22.00;55.50
35495;DHT22;21608;49.300;6.846;2022-10-16T15:24:49;22.00;55.50
35495;DHT22;21608;49.300;6.846;2022-10-16T15:27:50;22.00;55.50
35495;DHT22;21608;49.300;6.846;2022-10-16T15:30:54;22.00;55.60
35495;DHT22;21608;49.300;6.846;2022-10-16T15:33:56;22.00;56.10
35495;DHT22;21608;49.300;6.846;2022-10-16T15:37:03;22.00;55.60
35495;DHT22;21608;49.300;6.846;2022-10-16T15:40:06;22.00;55.60
35495;DHT22;21608;49.300;6.846;2022-10-16T15:43:08;22.00;55.70
35495;DHT22;21608;49.300;6.846;2022-10-16T15:46:11;22.00;55.60
35495;DHT22;21608;49.300;6.846;2022-10-16T15:49:15;22.00;55.80
35495;DHT22;21608;49.300;6.846;2022-10-16T15:52:17;22.00;55.90
35495;DHT22;21608;49.300;6.846;2022-10-16T15:55:19;22.00;55.80
35495;DHT22;21608;49.300;6.846;2022-10-16T15:58:21;22.00;55.70
35495;DHT22;21608;49.300;6.846;2022-10-16T16:01:23;22.00;55.90
35495;DHT22;21608;49.300;6.846;2022-10-16T16:04:24;22.00;55.90
35495;DHT22;21608;49.300;6.846;2022-10-16T16:07:44;22.00;55.90
35495;DHT22;21608;49.300;6.846;2022-10-16T16:10:45;22.00;55.90
35495;DHT22;21608;49.300;6.846;2022-10-16T16:13:58;22.00;55.90
35495;DHT22;21608;49.300;6.846;2022-10-16T16:16:59;22.00;55.70
35495;DHT22;21608;49.300;6.846;2022-10-16T16:20:02;22.00;55.80
35495;DHT22;21608;49.300;6.846;2022-10-16T16:23:03;22.00;55.90
35495;DHT22;21608;49.300;6.846;2022-10-16T16:26:09;22.00;55.90
35495;DHT22;21608;49.300;6.846;2022-10-16T16:29:13;22.00;56.10
35495;DHT22;21608;49.300;6.846;2022-10-16T16:32:16;21.90;56.00
35495;DHT22;21608;49.300;6.846;2022-10-16T16:35:18;22.00;56.10
35495;DHT22;21608;49.300;6.846;2022-10-16T16:38:20;21.90;56.00
35495;DHT22;21608;49.300;6.846;2022-10-16T16:41:24;21.90;55.90
35495;DHT22;21608;49.300;6.846;2022-10-16T16:44:27;21.90;56.40
35495;DHT22;21608;49.300;6.846;2022-10-16T16:47:29;21.90;55.70
35495;DHT22;21608;49.300;6.846;2022-10-16T16:50:35;21.90;56.40
35495;DHT22;21608;49.300;6.846;2022-10-16T16:53:37;21.90;56.00
35495;DHT22;21608;49.300;6.846;2022-10-16T16:56:39;21.90;56.00
35495;DHT22;21608;49.300;6.846;2022-10-16T16:59:44;21.90;55.80
35495;DHT22;21608;49.300;6.846;2022-10-16T17:02:48;21.90;55.80
35495;DHT22;21608;49.300;6.846;2022-10-16T17:05:58;21.90;55.80
35495;DHT22;21608;49.300;6.846;2022-10-16T17:09:01;21.90;55.80
35495;DHT22;21608;49.300;6.846;2022-10-16T17:12:04;21.90;55.90
35495;DHT22;21608;49.300;6.846;2022-10-16T17:15:06;21.90;55.80
35495;DHT22;21608;49.300;6.846;2022-10-16T17:18:08;21.90;55.90
35495;DHT22;21608;49.300;6.846;2022-10-16T17:21:10;21.90;55.90
35495;DHT22;21608;49.300;6.846;2022-10-16T17:24:12;21.90;55.90
35495;DHT22;21608;49.300;6.846;2022-10-16T17:27:14;21.90;55.80
35495;DHT22;21608;49.300;6.846;2022-10-16T17:30:16;21.90;55.80
35495;DHT22;21608;49.300;6.846;2022-10-16T17:33:17;21.90;55.90
35495;DHT22;21608;49.300;6.846;2022-10-16T17:36:20;21.90;55.80
35495;DHT22;21608;49.300;6.846;2022-10-16T17:39:22;21.90;55.90
35495;DHT22;21608;49.300;6.846;2022-10-16T17:42:24;21.90;55.90
35495;DHT22;21608;49.300;6.846;2022-10-16T17:45:27;21.80;56.00
35495;DHT22;21608;49.300;6.846;2022-10-16T17:48:29;21.90;56.10
35495;DHT22;21608;49.300;6.846;2022-10-16T17:51:31;21.90;56.20
35495;DHT22;21608;49.300;6.846;2022-10-16T17:54:33;21.90;56.20
35495;DHT22;21608;49.300;6.846;2022-10-16T17:57:35;21.80;56.10
35495;DHT22;21608;49.300;6.846;2022-10-16T18:00:36;21.90;56.20
35495;DHT22;21608;49.300;6.846;2022-10-16T18:03:38;21.80;56.00
35495;DHT22;21608;49.300;6.846;2022-10-16T18:06:41;21.80;56.20
35495;DHT22;21608;49.300;6.846;2022-10-16T18:09:44;21.80;56.10
35495;DHT22;21608;49.300;6.846;2022-10-16T18:13:06;21.80;56.00
35495;DHT22;21608;49.300;6.846;2022-10-16T18:16:10;21.80;56.00
35495;DHT22;21608;49.300;6.846;2022-10-16T18:19:12;21.80;56.10
35495;DHT22;21608;49.300;6.846;2022-10-16T18:22:14;21.80;56.20
35495;DHT22;21608;49.300;6.846;2022-10-16T18:25:16;21.80;56.20
35495;DHT22;21608;49.300;6.846;2022-10-16T18:28:18;21.80;56.10
35495;DHT22;21608;49.300;6.846;2022-10-16T18:31:21;21.80;56.10
35495;DHT22;21608;49.300;6.846;2022-10-16T18:34:23;21.80;56.10
35495;DHT22;21608;49.300;6.846;2022-10-16T18:37:27;21.80;56.00
35495;DHT22;21608;49.300;6.846;2022-10-16T18:40:29;21.80;56.10
35495;DHT22;21608;49.300;6.846;2022-10-16T18:43:32;21.80;56.00
35495;DHT22;21608;49.300;6.846;2022-10-16T18:46:34;21.80;56.00
35495;DHT22;21608;49.300;6.846;2022-10-16T18:49:36;21.80;56.10
35495;DHT22;21608;49.300;6.846;2022-10-16T18:52:38;21.80;56.20
35495;DHT22;21608;49.300;6.846;2022-10-16T18:55:40;21.80;56.70
35495;DHT22;21608;49.300;6.846;2022-10-16T18:58:43;21.80;56.10
35495;DHT22;21608;49.300;6.846;2022-10-16T19:01:47;21.80;56.20
35495;DHT22;21608;49.300;6.846;2022-10-16T19:04:49;21.80;56.30
35495;DHT22;21608;49.300;6.846;2022-10-16T19:07:51;21.80;56.20
35495;DHT22;21608;49.300;6.846;2022-10-16T19:10:53;21.80;56.20
35495;DHT22;21608;49.300;6.846;2022-10-16T19:13:55;21.80;56.20
35495;DHT22;21608;49.300;6.846;2022-10-16T19:16:57;21.80;56.20
35495;DHT22;21608;49.300;6.846;2022-10-16T19:20:00;21.80;56.10
35495;DHT22;21608;49.300;6.846;2022-10-16T19:23:02;21.80;56.10
35495;DHT22;21608;49.300;6.846;2022-10-16T19:26:06;21.80;56.00
35495;DHT22;21608;49.300;6.846;2022-10-16T19:29:09;21.80;56.10
35495;DHT22;21608;49.300;6.846;2022-10-16T19:32:11;21.80;56.10
35495;DHT22;21608;49.300;6.846;2022-10-16T19:35:13;21.80;56.20
35495;DHT22;21608;49.300;6.846;2022-10-16T19:38:15;21.80;56.10
35495;DHT22;21608;49.300;6.846;2022-10-16T19:41:17;21.70;56.70
35495;DHT22;21608;49.300;6.846;2022-10-16T19:44:19;21.80;55.90
35495;DHT22;21608;49.300;6.846;2022-10-16T19:47:21;21.80;56.00
35495;DHT22;21608;49.300;6.846;2022-10-16T19:50:24;21.70;56.00
35495;DHT22;21608;49.300;6.846;2022-10-16T19:53:26;21.80;56.10
35495;DHT22;21608;49.300;6.846;2022-10-16T19:56:32;21.80;56.20
35495;DHT22;21608;49.300;6.846;2022-10-16T19:59:34;21.80;56.20
35495;DHT22;21608;49.300;6.846;2022-10-16T20:02:36;21.80;56.20
35495;DHT22;21608;49.300;6.846;2022-10-16T20:05:38;21.80;56.20
35495;DHT22;21608;49.300;6.846;2022-10-16T20:08:41;21.80;56.20
35495;DHT22;21608;49.300;6.846;2022-10-16T20:11:43;21.80;56.20
35495;DHT22;21608;49.300;6.846;2022-10-16T20:14:45;21.80;56.20
35495;DHT22;21608;49.300;6.846;2022-10-16T20:17:47;21.80;56.30
35495;DHT22;21608;49.300;6.846;2022-10-16T20:20:49;21.80;56.30
35495;DHT22;21608;49.300;6.846;2022-10-16T20:23:51;21.80;56.40
35495;DHT22;21608;49.300;6.846;2022-10-16T20:26:54;21.80;56.30
35495;DHT22;21608;49.300;6.846;2022-10-16T20:29:56;21.80;56.40
35495;DHT22;21608;49.300;6.846;2022-10-16T20:32:57;21.80;56.30
35495;DHT22;21608;49.300;6.846;2022-10-16T20:35:59;21.80;56.30
35495;DHT22;21608;49.300;6.846;2022-10-16T20:39:01;21.80;56.30
35495;DHT22;21608;49.300;6.846;2022-10-16T20:42:03;21.70;56.30
35495;DHT22;21608;49.300;6.846;2022-10-16T20:45:06;21.80;56.40
35495;DHT22;21608;49.300;6.846;2022-10-16T20:48:08;21.80;56.30